Terminal Aerodrome Forecast
Issued by NWS

Home | Current Version | Previous Version | Text Only | Print | Product List | Glossary On
Versions: 1 2 3 4 5 6 7 8 9 10 11 12 13 14 15 16 17 18 19 20 21 22 23 24 25 26 27 28 29 30 31 32 33 34 35 36 37 38
000
FTAK31 PANC 052008 AAA
TAFAGK
TAF AMD
PAGK 052008Z 0520/0618 VRB03KT P6SM VCFG OVC006
     FM052100 VRB03KT P6SM VCFG BKN015
     FM060000 16005KT P6SM SCT020 BKN035
     FM061200 17009KT 5SM -SHSN SCT015 BKN030=

USA.gov is the U.S. government's official web portal to all federal, state and local government web resources and services.